Dallas, Texas
Traffic Map
Current Weather Conditions
Dallas, Texas
Few Clouds
Few Clouds
93°
Feels Like: 100°
Wind Chill: 93° Ceiling: Unl
Heat Index: 100° Visibility: 10mi
Dew Point: 71° Wind: 8mph
Humidity: 49% Direction: 240° (WSW)
Pressure: 30in Gusts: 0mph
Raw Report DataKDAL 191653Z 24007KT 10SM FEW250 34/22 A3000 RMK AO2 SLP149 T03390217 $
Traffic Incident Summary
Active as of:
Severity:
Category:
InformationThere was an issue retrieving the traffic information for this location. Please try a different location or try again shortly.
Advertisements